createdAt,value
2019-03-20T00:01:00.824Z,130.05
2019-03-20T00:03:28.291Z,129.55
2019-03-20T00:05:55.440Z,130.22
2019-03-20T00:08:22.662Z,130.52
2019-03-20T00:10:49.804Z,129.82
2019-03-20T00:13:17.059Z,131.20
2019-03-20T00:15:44.283Z,128.57
2019-03-20T00:18:11.709Z,129.80
2019-03-20T00:20:38.838Z,130.65
2019-03-20T00:23:06.045Z,127.75
2019-03-20T00:25:33.685Z,128.05
2019-03-20T00:28:01.092Z,128.72
2019-03-20T00:30:28.200Z,127.92
2019-03-20T00:32:56.660Z,127.87
2019-03-20T00:35:23.842Z,127.87
2019-03-20T00:37:52.566Z,129.15
2019-03-20T00:40:20.772Z,128.35
2019-03-20T00:42:48.150Z,128.40
2019-03-20T00:45:15.266Z,127.58
2019-03-20T00:47:42.859Z,129.40
2019-03-20T00:50:13.541Z,128.85
2019-03-20T00:52:40.625Z,130.47
2019-03-20T00:55:08.927Z,129.15
2019-03-20T00:57:36.092Z,127.72
2019-03-20T01:00:06.501Z,127.83
2019-03-20T01:02:34.686Z,129.40
2019-03-20T01:05:12.193Z,128.30
2019-03-20T01:07:30.822Z,129.00
2019-03-20T01:09:57.851Z,128.63
2019-03-20T01:12:25.065Z,129.07
2019-03-20T01:14:52.584Z,128.77
2019-03-20T01:17:19.642Z,129.07
2019-03-20T01:19:46.693Z,127.60
2019-03-20T01:22:14.045Z,128.10
2019-03-20T01:24:41.074Z,127.70
2019-03-20T01:27:08.614Z,127.43
2019-03-20T01:29:37.516Z,127.30
2019-03-20T01:32:04.686Z,128.50
2019-03-20T01:34:31.713Z,126.90
2019-03-20T01:36:58.804Z,128.42
2019-03-20T01:39:27.604Z,127.65
2019-03-20T01:41:54.656Z,127.62
2019-03-20T01:44:21.821Z,127.45
2019-03-20T01:46:48.896Z,128.43
2019-03-20T01:49:15.946Z,127.00
2019-03-20T01:51:46.189Z,127.15
2019-03-20T01:54:13.202Z,126.90
2019-03-20T01:56:40.289Z,127.90
2019-03-20T01:59:07.386Z,127.15
2019-03-20T02:01:36.204Z,126.47
2019-03-20T02:04:03.565Z,125.97
2019-03-20T02:06:30.682Z,126.17
2019-03-20T02:08:57.705Z,126.47
2019-03-20T02:11:26.948Z,126.30
2019-03-20T02:13:54.075Z,128.00
2019-03-20T02:16:21.162Z,126.90
2019-03-20T02:18:48.679Z,126.43
2019-03-20T02:21:15.919Z,126.77
2019-03-20T02:23:42.989Z,126.93
2019-03-20T02:26:10.483Z,126.83
2019-03-20T02:28:37.588Z,127.02
2019-03-20T02:31:05.717Z,127.43
2019-03-20T02:33:33.171Z,126.85
2019-03-20T02:36:00.329Z,128.33
2019-03-20T02:38:27.464Z,127.30
2019-03-20T02:40:55.718Z,126.00
2019-03-20T02:43:23.061Z,126.30
2019-03-20T02:45:50.101Z,125.90
2019-03-20T02:48:17.180Z,126.40
2019-03-20T02:50:45.573Z,125.77
2019-03-20T02:53:12.594Z,126.33
2019-03-20T02:55:40.910Z,126.40
2019-03-20T02:58:08.392Z,126.97
2019-03-20T03:00:35.441Z,127.17
2019-03-20T03:03:02.775Z,127.07
2019-03-20T03:05:30.238Z,126.97
2019-03-20T03:07:57.282Z,126.67
2019-03-20T03:10:24.333Z,127.00
2019-03-20T03:12:51.735Z,128.10
2019-03-20T03:15:18.814Z,127.07
2019-03-20T03:17:45.868Z,126.40
2019-03-20T03:20:13.012Z,127.47
2019-03-20T03:22:40.021Z,127.50
2019-03-20T03:25:07.060Z,127.67
2019-03-20T03:27:34.099Z,127.22
2019-03-20T03:30:01.178Z,127.65
2019-03-20T03:32:28.196Z,127.82
2019-03-20T03:34:55.480Z,127.40
2019-03-20T03:37:24.337Z,127.95
2019-03-20T03:39:52.617Z,127.40
2019-03-20T03:42:19.709Z,128.20
2019-03-20T03:44:46.772Z,126.43
2019-03-20T03:47:14.184Z,126.00
2019-03-20T03:49:43.511Z,125.90
2019-03-20T03:52:10.569Z,125.70
2019-03-20T03:54:38.064Z,126.20
2019-03-20T03:57:05.499Z,126.77
2019-03-20T03:59:32.547Z,126.70
2019-03-20T04:01:59.596Z,128.25
2019-03-20T04:04:26.684Z,126.97
2019-03-20T04:06:53.727Z,127.03
2019-03-20T04:09:20.750Z,126.77
2019-03-20T04:11:47.849Z,127.87
2019-03-20T04:14:14.906Z,127.37
2019-03-20T04:16:41.972Z,128.87
2019-03-20T04:19:09.027Z,127.10
2019-03-20T04:21:36.089Z,127.57
2019-03-20T04:24:03.536Z,127.53
2019-03-20T04:26:30.629Z,126.97
2019-03-20T04:28:58.143Z,125.87
2019-03-20T04:31:25.202Z,126.80
2019-03-20T04:33:52.650Z,127.27
2019-03-20T04:36:19.678Z,128.05
2019-03-20T04:38:46.732Z,129.13
2019-03-20T04:41:13.827Z,128.57
2019-03-20T04:43:40.892Z,128.35
2019-03-20T04:46:07.906Z,129.37
2019-03-20T04:48:35.374Z,128.50
2019-03-20T04:51:02.407Z,129.13
2019-03-20T04:53:29.451Z,128.10
2019-03-20T04:55:59.319Z,128.53
2019-03-20T04:58:26.325Z,127.83
2019-03-20T05:00:53.491Z,127.10
2019-03-20T05:03:20.896Z,126.77
2019-03-20T05:05:47.911Z,126.90
2019-03-20T05:08:14.929Z,126.17
2019-03-20T05:10:42.345Z,126.80
2019-03-20T05:13:09.354Z,125.50
2019-03-20T05:15:36.386Z,126.27
2019-03-20T05:18:03.480Z,126.17
2019-03-20T05:20:30.506Z,126.77
2019-03-20T05:22:57.655Z,127.03
2019-03-20T05:25:24.751Z,126.20
2019-03-20T05:27:51.823Z,128.23
2019-03-20T05:30:19.495Z,126.97
2019-03-20T05:32:46.579Z,126.93
2019-03-20T05:35:13.587Z,127.03
2019-03-20T05:37:40.968Z,128.53
2019-03-20T05:40:09.720Z,127.30
2019-03-20T05:42:36.780Z,128.27
2019-03-20T05:45:05.198Z,128.07
2019-03-20T05:47:32.294Z,127.07
2019-03-20T05:49:59.355Z,126.20
2019-03-20T05:52:26.403Z,128.87
2019-03-20T05:54:54.651Z,130.50
2019-03-20T05:57:21.877Z,131.77
2019-03-20T05:59:49.289Z,129.50
2019-03-20T06:02:16.788Z,131.73
2019-03-20T06:04:43.829Z,127.53
2019-03-20T06:07:20.869Z,129.07
2019-03-20T06:09:39.922Z,130.72
2019-03-20T06:12:07.000Z,129.75
2019-03-20T06:14:34.255Z,131.37
2019-03-20T06:17:01.854Z,131.05
2019-03-20T06:19:28.887Z,132.18
2019-03-20T06:21:55.945Z,132.35
2019-03-20T06:24:41.872Z,131.93
2019-03-20T06:27:18.804Z,134.37
2019-03-20T06:29:46.817Z,133.70
2019-03-20T06:32:13.891Z,133.05
2019-03-20T06:41:43.826Z,133.60
2019-03-20T06:44:12.697Z,135.18
2019-03-20T06:46:40.030Z,135.82
2019-03-20T06:49:08.063Z,135.15
2019-03-20T06:51:35.214Z,136.72
2019-03-20T06:54:02.233Z,137.12
2019-03-20T06:56:30.073Z,136.28
2019-03-20T06:59:48.127Z,137.82
2019-03-20T07:02:17.905Z,137.15
2019-03-20T07:05:10.999Z,139.97
2019-03-20T07:07:43.934Z,139.57
2019-03-20T07:10:22.087Z,140.55
2019-03-20T07:12:49.294Z,152.82
2019-03-20T07:15:16.343Z,141.85
2019-03-20T07:17:43.404Z,143.65
2019-03-20T07:20:10.917Z,143.68
2019-03-20T07:22:37.973Z,155.07
2019-03-20T07:25:05.082Z,149.62
2019-03-20T07:27:32.188Z,149.85
2019-03-20T07:29:59.247Z,145.15
2019-03-20T07:36:23.155Z,137.50
2019-03-20T07:38:56.787Z,141.88
2019-03-20T07:41:27.751Z,138.65
2019-03-20T07:43:54.920Z,149.10
2019-03-20T07:46:21.995Z,142.95
2019-03-20T07:48:49.056Z,142.75
2019-03-20T07:51:17.258Z,143.20
2019-03-20T07:53:46.995Z,144.07
2019-03-20T07:56:14.062Z,143.40
2019-03-20T07:58:41.090Z,144.22
2019-03-20T08:01:08.176Z,145.65
2019-03-20T08:03:37.479Z,146.75
2019-03-20T08:06:04.955Z,147.47
2019-03-20T08:08:33.343Z,147.02
2019-03-20T08:11:00.614Z,147.65
2019-03-20T08:13:27.711Z,147.90
2019-03-20T08:15:54.790Z,148.25
2019-03-20T08:18:22.419Z,147.28
2019-03-20T08:20:49.481Z,146.55
2019-03-20T08:23:16.650Z,147.20
2019-03-20T08:25:43.713Z,146.93
2019-03-20T08:28:14.864Z,152.00
2019-03-20T08:30:41.937Z,148.13
2019-03-20T08:33:09.707Z,144.95
2019-03-20T08:35:48.217Z,142.47
2019-03-20T08:38:18.719Z,142.53
2019-03-20T08:40:45.777Z,142.90
2019-03-20T08:43:14.052Z,144.02
2019-03-20T08:45:41.127Z,141.85
2019-03-20T08:48:08.527Z,148.47
2019-03-20T08:50:35.616Z,142.70
2019-03-20T08:53:04.384Z,142.87
2019-03-20T08:55:31.522Z,141.68
2019-03-20T08:57:58.708Z,140.70
2019-03-20T09:00:35.718Z,139.55
2019-03-20T09:03:03.279Z,139.37
2019-03-20T09:05:30.377Z,144.40
2019-03-20T09:07:57.605Z,140.68
2019-03-20T09:10:24.701Z,143.02
2019-03-20T09:12:51.765Z,140.73
2019-03-20T09:15:20.646Z,143.07
2019-03-20T09:17:47.934Z,143.02
2019-03-20T09:20:18.624Z,142.75
2019-03-20T09:22:48.578Z,142.47
2019-03-20T09:25:15.898Z,142.87
2019-03-20T09:27:43.286Z,146.35
2019-03-20T09:30:16.261Z,144.15
2019-03-20T09:32:45.211Z,149.80
2019-03-20T09:35:12.439Z,143.43
2019-03-20T09:37:50.908Z,145.00
2019-03-20T09:40:10.044Z,144.68
2019-03-20T09:42:37.082Z,147.50
2019-03-20T09:45:07.237Z,147.40
2019-03-20T09:47:34.385Z,146.13
2019-03-20T09:50:01.547Z,149.47
2019-03-20T09:52:29.063Z,147.13
2019-03-20T09:54:56.194Z,148.90
2019-03-20T09:57:23.421Z,148.97
2019-03-20T09:59:50.529Z,148.97
2019-03-20T10:02:17.660Z,148.80
2019-03-20T10:04:44.892Z,148.17
2019-03-20T10:07:11.966Z,147.70
2019-03-20T10:09:40.431Z,146.37
2019-03-20T10:12:07.549Z,143.93
2019-03-20T10:14:34.642Z,146.57
2019-03-20T10:17:01.678Z,146.43
2019-03-20T10:19:28.749Z,147.50
2019-03-20T10:21:55.869Z,147.53
2019-03-20T10:24:23.620Z,147.70
2019-03-20T10:26:50.819Z,146.80
2019-03-20T10:29:17.872Z,146.62
2019-03-20T10:31:44.967Z,148.93
2019-03-20T10:34:13.241Z,146.15
2019-03-20T10:36:40.456Z,146.65
2019-03-20T10:39:07.738Z,147.45
2019-03-20T10:41:34.875Z,147.93
2019-03-20T10:44:01.988Z,145.55
2019-03-20T10:46:29.082Z,145.95
2019-03-20T10:48:56.596Z,146.47
2019-03-20T10:51:25.517Z,144.02
2019-03-20T10:53:52.565Z,146.07
2019-03-20T10:56:19.608Z,148.47
2019-03-20T10:58:46.682Z,149.42
2019-03-20T11:01:13.752Z,150.42
2019-03-20T11:03:41.344Z,152.65
2019-03-20T11:06:13.886Z,149.77
2019-03-20T11:08:40.915Z,150.97
2019-03-20T11:11:07.949Z,145.85
2019-03-20T11:13:35.090Z,143.62
2019-03-20T11:16:02.160Z,146.35
2019-03-20T11:18:29.694Z,147.28
2019-03-20T11:20:57.108Z,144.45
2019-03-20T11:23:24.132Z,144.43
2019-03-20T11:25:51.586Z,146.20
2019-03-20T11:28:18.655Z,143.62
2019-03-20T11:30:46.778Z,143.37
2019-03-20T11:33:13.822Z,144.10
2019-03-20T11:35:42.552Z,144.75
2019-03-20T11:38:09.698Z,145.17
2019-03-20T11:40:36.767Z,144.30
2019-03-20T11:43:04.463Z,145.40
2019-03-20T11:45:31.690Z,144.43
2019-03-20T11:47:58.964Z,148.87
2019-03-20T11:50:42.575Z,146.15
2019-03-20T11:53:09.643Z,145.92
2019-03-20T11:55:36.718Z,146.72
2019-03-20T11:58:05.589Z,146.18
2019-03-20T12:00:33.012Z,145.28
2019-03-20T12:03:00.431Z,144.00
2019-03-20T12:05:31.079Z,142.60
2019-03-20T12:08:00.025Z,143.07
2019-03-20T12:10:28.332Z,144.10
2019-03-20T12:12:55.409Z,146.82
2019-03-20T12:15:22.934Z,148.72
2019-03-20T12:17:50.115Z,148.82
2019-03-20T12:20:18.055Z,149.55
2019-03-20T12:27:14.960Z,150.22
2019-03-20T12:29:39.721Z,151.57
2019-03-20T12:32:07.040Z,152.07
2019-03-20T12:34:36.407Z,150.38
2019-03-20T12:37:06.934Z,155.25
2019-03-20T12:39:34.974Z,153.80
2019-03-20T12:42:03.263Z,153.47
2019-03-20T12:44:30.387Z,151.70
2019-03-20T12:46:57.809Z,153.97
2019-03-20T12:49:25.188Z,154.72
2019-03-20T12:51:52.586Z,150.38
2019-03-20T12:54:19.610Z,151.40
2019-03-20T12:56:46.638Z,151.05
2019-03-20T12:59:14.150Z,149.87
2019-03-20T13:01:41.258Z,147.85
2019-03-20T13:04:08.310Z,145.02
2019-03-20T13:06:35.398Z,145.45
2019-03-20T13:09:04.704Z,145.97
2019-03-20T13:11:33.645Z,144.43
2019-03-20T13:14:01.401Z,146.65
2019-03-20T13:16:29.595Z,143.75
2019-03-20T13:18:56.603Z,144.02
2019-03-20T13:21:24.168Z,144.17
2019-03-20T13:23:51.300Z,142.72
2019-03-20T13:26:19.124Z,143.45
2019-03-20T13:28:46.706Z,144.75
2019-03-20T13:31:16.713Z,144.15
2019-03-20T13:33:43.782Z,144.97
2019-03-20T13:36:10.879Z,144.85
2019-03-20T13:38:37.969Z,144.28
2019-03-20T13:41:05.183Z,146.15
2019-03-20T13:43:34.366Z,143.22
2019-03-20T13:46:02.604Z,144.77
2019-03-20T13:48:29.639Z,145.77
2019-03-20T13:50:56.744Z,144.97
2019-03-20T13:53:24.023Z,147.05
2019-03-20T13:55:51.137Z,146.45
2019-03-20T13:58:18.233Z,145.20
2019-03-20T14:00:45.266Z,145.17
2019-03-20T14:03:12.402Z,148.72
2019-03-20T14:05:39.508Z,146.62
2019-03-20T14:08:09.657Z,149.60
2019-03-20T14:10:49.653Z,148.72
2019-03-20T14:16:26.228Z,149.10
2019-03-20T14:18:53.340Z,149.42
2019-03-20T14:21:20.370Z,152.17
2019-03-20T14:23:48.699Z,150.65
2019-03-20T14:26:16.144Z,149.80
2019-03-20T14:28:45.274Z,146.40
2019-03-20T14:31:12.402Z,149.07
2019-03-20T14:33:39.514Z,149.32
2019-03-20T14:36:07.589Z,151.12
2019-03-20T14:38:34.765Z,149.38
2019-03-20T14:41:02.295Z,149.80
2019-03-20T14:43:29.680Z,148.32
2019-03-20T14:45:56.819Z,147.55
2019-03-20T14:48:23.899Z,145.02
2019-03-20T14:50:51.040Z,145.17
2019-03-20T14:53:18.577Z,144.50
2019-03-20T14:55:45.718Z,144.20
2019-03-20T14:58:12.752Z,145.05
2019-03-20T15:00:40.236Z,145.05
2019-03-20T15:03:07.352Z,145.15
2019-03-20T15:05:36.177Z,147.78
2019-03-20T15:08:05.242Z,145.17
2019-03-20T15:10:32.574Z,148.05
2019-03-20T15:13:01.886Z,147.43
2019-03-20T15:15:35.253Z,146.35
2019-03-20T15:18:02.597Z,146.98
2019-03-20T15:20:30.160Z,146.62
2019-03-20T15:22:58.403Z,145.77
2019-03-20T15:25:25.571Z,145.62
2019-03-20T15:27:54.347Z,145.02
2019-03-20T15:30:21.741Z,145.28
2019-03-20T15:32:48.789Z,143.75
2019-03-20T15:35:16.451Z,144.05
2019-03-20T15:37:44.358Z,146.77
2019-03-20T15:40:13.047Z,144.15
2019-03-20T15:42:40.103Z,145.87
2019-03-20T15:45:08.355Z,147.22
2019-03-20T15:47:35.430Z,147.30
2019-03-20T15:50:03.635Z,147.85
2019-03-20T15:52:30.752Z,147.22
2019-03-20T15:55:01.437Z,145.17
2019-03-20T15:57:29.596Z,144.70
2019-03-20T15:59:56.659Z,144.85
2019-03-20T16:02:23.947Z,145.30
2019-03-20T16:04:51.000Z,146.87
2019-03-20T16:07:18.225Z,148.00
2019-03-20T16:09:47.102Z,145.70
2019-03-20T16:12:14.134Z,146.75
2019-03-20T16:14:41.237Z,150.68
2019-03-20T16:17:08.796Z,147.10
2019-03-20T16:19:37.092Z,146.77
2019-03-20T16:22:05.980Z,148.28
2019-03-20T16:24:38.290Z,148.50
2019-03-20T16:27:10.607Z,147.50
2019-03-20T16:29:38.078Z,149.20
2019-03-20T16:32:10.126Z,150.45
2019-03-20T16:34:37.288Z,148.95
2019-03-20T16:37:04.361Z,149.18
2019-03-20T16:39:31.731Z,149.57
2019-03-20T16:41:58.823Z,145.20
2019-03-20T16:44:26.212Z,145.62
2019-03-20T16:46:53.282Z,146.40
2019-03-20T16:49:20.587Z,145.82
2019-03-20T16:51:48.118Z,145.68
2019-03-20T16:54:15.285Z,147.02
2019-03-20T16:56:42.361Z,145.47
2019-03-20T16:59:09.433Z,147.17
2019-03-20T17:01:36.933Z,146.45
2019-03-20T17:04:04.387Z,149.80
2019-03-20T17:06:31.475Z,145.57
2019-03-20T17:08:58.864Z,153.38
2019-03-20T17:11:34.465Z,145.72
2019-03-20T17:13:55.294Z,144.68
2019-03-20T17:16:24.215Z,145.87
2019-03-20T17:18:51.359Z,144.95
2019-03-20T17:21:18.552Z,145.77
2019-03-20T17:23:46.726Z,142.95
2019-03-20T17:26:13.964Z,143.95
2019-03-20T17:28:44.472Z,144.10
2019-03-20T17:31:12.030Z,142.20
2019-03-20T17:33:39.630Z,142.95
2019-03-20T17:36:06.757Z,142.25
2019-03-20T17:38:33.888Z,141.85
2019-03-20T17:41:01.230Z,141.82
2019-03-20T17:43:30.539Z,142.30
2019-03-20T17:45:58.022Z,140.85
2019-03-20T17:48:25.563Z,141.50
2019-03-20T17:50:52.642Z,142.50
2019-03-20T17:53:20.025Z,141.20
2019-03-20T17:55:48.547Z,142.28
2019-03-20T17:58:15.634Z,141.82
2019-03-20T18:00:44.788Z,141.28
2019-03-20T18:03:12.626Z,144.40
2019-03-20T18:05:40.039Z,141.37
2019-03-20T18:08:07.087Z,142.90
2019-03-20T18:10:34.750Z,141.00
2019-03-20T18:13:02.113Z,140.43
2019-03-20T18:15:30.911Z,142.28
2019-03-20T18:18:01.220Z,142.50
2019-03-20T18:20:28.304Z,144.15
2019-03-20T18:22:55.547Z,142.85
2019-03-20T18:25:27.273Z,143.35
2019-03-20T18:27:54.387Z,141.90
2019-03-20T18:30:22.106Z,143.30
2019-03-20T18:32:49.246Z,143.35
2019-03-20T18:35:17.546Z,145.02
2019-03-20T18:37:44.926Z,142.22
2019-03-20T18:40:13.837Z,141.53
2019-03-20T18:42:41.543Z,141.60
2019-03-20T18:45:16.086Z,140.90
2019-03-20T18:47:43.320Z,139.77
2019-03-20T18:50:12.921Z,143.22
2019-03-20T18:52:40.448Z,148.87
2019-03-20T18:55:08.526Z,143.05
2019-03-20T18:57:36.785Z,143.10
2019-03-20T19:00:06.134Z,140.12
2019-03-20T19:02:33.378Z,140.62
2019-03-20T19:05:00.449Z,139.07
2019-03-20T19:07:28.107Z,138.18
2019-03-20T19:09:55.479Z,138.32
2019-03-20T19:12:22.552Z,137.55
2019-03-20T19:14:51.646Z,137.18
2019-03-20T19:17:19.032Z,138.37
2019-03-20T19:19:46.380Z,137.47
2019-03-20T19:22:13.746Z,136.68
2019-03-20T19:24:40.866Z,137.05
2019-03-20T19:27:10.926Z,137.12
2019-03-20T19:29:38.526Z,136.57
2019-03-20T19:32:05.574Z,135.30
2019-03-20T19:34:32.640Z,139.03
2019-03-20T19:37:00.000Z,136.70
2019-03-20T19:39:27.058Z,134.85
2019-03-20T19:41:58.787Z,138.03
2019-03-20T19:44:25.916Z,137.90
2019-03-20T19:46:53.010Z,136.85
2019-03-20T19:49:20.553Z,139.28
2019-03-20T19:51:47.693Z,138.55
2019-03-20T19:54:14.869Z,137.82
2019-03-20T19:56:42.921Z,137.28
2019-03-20T19:59:10.030Z,137.22
2019-03-20T20:01:37.104Z,136.30
2019-03-20T20:04:04.177Z,136.07
2019-03-20T20:06:31.395Z,136.82
2019-03-20T20:08:58.589Z,138.28
2019-03-20T20:11:25.725Z,138.95
2019-03-20T20:13:52.828Z,137.60
2019-03-20T20:16:19.865Z,142.22
2019-03-20T20:18:48.873Z,141.85
2019-03-20T20:21:17.604Z,148.22
2019-03-20T20:23:44.657Z,138.35
2019-03-20T20:26:12.443Z,137.82
2019-03-20T20:28:40.155Z,137.80
2019-03-20T20:31:07.345Z,137.22
2019-03-20T20:33:34.599Z,136.92
2019-03-20T20:36:01.703Z,135.88
2019-03-20T20:38:29.073Z,136.50
2019-03-20T20:40:56.107Z,135.07
2019-03-20T20:43:23.769Z,136.00
2019-03-20T20:45:51.015Z,135.00
2019-03-20T20:48:18.067Z,135.07
2019-03-20T20:50:45.315Z,134.90
2019-03-20T20:53:12.538Z,133.78
2019-03-20T20:55:39.588Z,134.70
2019-03-20T20:58:06.790Z,135.70
2019-03-20T21:00:33.914Z,133.87
2019-03-20T21:03:01.333Z,134.45
2019-03-20T21:05:28.494Z,136.15
2019-03-20T21:07:55.528Z,136.03
2019-03-20T21:10:22.570Z,134.37
2019-03-20T21:12:56.062Z,134.03
2019-03-20T21:15:40.270Z,134.37
2019-03-20T21:18:55.702Z,133.60
2019-03-20T21:21:34.387Z,133.07
2019-03-20T21:24:27.054Z,134.12
2019-03-20T21:27:42.079Z,135.50
2019-03-20T21:31:08.921Z,135.40
2019-03-20T21:34:14.505Z,135.30
2019-03-20T21:37:18.374Z,135.70
2019-03-20T21:39:47.396Z,135.32
2019-03-20T21:43:06.849Z,135.60
2019-03-20T21:46:18.972Z,135.37
2019-03-20T21:48:46.617Z,136.80
2019-03-20T21:51:15.473Z,137.45
2019-03-20T21:54:21.636Z,135.22
2019-03-20T21:57:27.059Z,135.60
2019-03-20T22:00:39.520Z,134.65
2019-03-20T22:03:07.395Z,136.00
2019-03-20T22:06:22.467Z,136.37
2019-03-20T22:08:50.429Z,133.78
2019-03-20T22:11:53.353Z,136.03
2019-03-20T22:14:20.927Z,133.50
2019-03-20T22:17:25.052Z,132.27
2019-03-20T22:20:33.537Z,133.22
2019-03-20T22:23:09.699Z,132.25
2019-03-20T22:26:17.867Z,132.82
2019-03-20T22:29:26.774Z,133.40
2019-03-20T22:32:51.004Z,132.43
2019-03-20T22:35:40.711Z,132.67
2019-03-20T22:38:21.816Z,132.65
2019-03-20T22:41:28.981Z,134.30
2019-03-20T22:44:00.615Z,133.55
2019-03-20T22:47:08.740Z,133.43
2019-03-20T22:50:12.360Z,133.97
2019-03-20T22:53:19.022Z,133.57
2019-03-20T22:56:19.353Z,132.30
2019-03-20T22:58:47.524Z,132.15
2019-03-20T23:01:44.709Z,131.35
2019-03-20T23:04:20.370Z,132.07
2019-03-20T23:06:49.074Z,131.93
2019-03-20T23:09:18.955Z,132.63
2019-03-20T23:11:52.226Z,131.93
2019-03-20T23:14:23.996Z,131.93
2019-03-20T23:16:51.577Z,131.45
2019-03-20T23:19:19.410Z,131.18
2019-03-20T23:21:46.976Z,131.75
2019-03-20T23:24:14.669Z,132.35
2019-03-20T23:26:42.717Z,131.82
2019-03-20T23:29:10.407Z,132.22
2019-03-20T23:31:39.931Z,132.20
2019-03-20T23:34:08.606Z,132.78
2019-03-20T23:36:36.196Z,132.95
2019-03-20T23:39:07.050Z,132.67
2019-03-20T23:41:34.798Z,132.75
2019-03-20T23:44:04.662Z,132.87
2019-03-20T23:46:32.393Z,133.75
2019-03-20T23:49:04.210Z,132.43
2019-03-20T23:51:33.732Z,132.40
2019-03-20T23:54:01.976Z,133.27
2019-03-20T23:56:31.670Z,132.85
2019-03-20T23:58:59.310Z,133.70
